Time;durP1;ratioP1;P1;durP2;ratioP2;P2;SDS_P1;SDS_P2;PMS_P1;PMS_P2;Temp;Humidity;BMP_temperature;BMP_pressure;BME280_temperature;BME280_humidity;BME280_pressure;Samples;Min_cycle;Max_cycle;Signal;HPM_P1;HPM_P2
2022/12/19 00:00:40;;;;;;;256.70;139.07;;;;;;;13.30;76.98;98961.44;4966511;28;20075;-62
2022/12/19 00:03:35;;;;;;;265.35;141.15;;;;;;;13.29;76.99;98961.63;4958545;28;20568;-62
2022/12/19 00:06:11;;;;;;;263.50;140.50;;;;;;;13.25;76.55;98968.53;4965923;28;20145;-62
2022/12/19 00:09:06;;;;;;;272.88;142.43;;;;;;;13.30;77.17;98974.09;4965757;28;20082;-62
2022/12/19 00:11:41;;;;;;;243.70;138.68;;;;;;;13.27;77.11;98971.81;4966747;28;20645;-62
2022/12/19 00:14:36;;;;;;;265.45;142.85;;;;;;;13.22;77.38;98971.66;4958901;28;20047;-62
2022/12/19 00:17:12;;;;;;;253.18;138.23;;;;;;;13.08;77.35;98971.81;4966015;28;20054;-62
2022/12/19 00:20:07;;;;;;;265.73;139.93;;;;;;;13.07;78.12;98966.66;4966548;28;20058;-62
2022/12/19 00:22:44;;;;;;;263.83;138.15;;;;;;;13.01;78.22;98971.09;4965676;28;20058;-62
2022/12/19 00:25:39;;;;;;;266.67;142.18;;;;;;;12.89;77.70;98972.84;4965638;28;20046;-62
2022/12/19 00:28:14;;;;;;;261.48;137.85;;;;;;;12.81;78.50;98986.63;4965916;28;20070;-62
2022/12/19 00:31:11;;;;;;;255.43;140.07;;;;;;;13.08;78.39;98992.56;4966139;28;20526;-62
2022/12/19 00:33:47;;;;;;;264.83;135.57;;;;;;;12.94;77.41;98983.78;4964423;28;20086;-62
2022/12/19 00:36:38;;;;;;;245.38;131.43;;;;;;;12.98;76.94;98979.59;4965835;28;20059;-63
2022/12/19 00:39:28;;;;;;;248.45;136.75;;;;;;;12.89;76.63;98980.94;4960613;28;20511;-62
2022/12/19 00:42:09;;;;;;;249.25;135.27;;;;;;;12.86;76.99;98978.66;4964942;28;20810;-62
2022/12/19 00:44:59;;;;;;;238.63;130.65;;;;;;;12.99;76.54;98985.81;4954924;28;20117;-61
2022/12/19 00:47:54;;;;;;;247.65;134.75;;;;;;;12.78;76.70;98987.03;4958896;28;20136;-61
2022/12/19 00:50:32;;;;;;;244.30;131.30;;;;;;;12.74;77.69;98989.34;4962940;28;20129;-61
2022/12/19 00:53:28;;;;;;;246.43;131.45;;;;;;;12.90;77.39;98993.38;4964408;28;20050;-63
2022/12/19 00:56:06;;;;;;;261.13;134.90;;;;;;;12.99;76.74;98991.19;4962467;28;20319;-62
2022/12/19 00:59:02;;;;;;;241.93;134.07;;;;;;;12.99;76.50;98986.63;4962936;28;20287;-62
2022/12/19 01:01:39;;;;;;;259.65;134.75;;;;;;;13.04;76.47;98994.88;4964827;28;20114;-61
2022/12/19 01:04:35;;;;;;;270.73;138.48;;;;;;;13.03;76.76;98993.22;4963672;28;20047;-62
2022/12/19 01:07:15;;;;;;;269.23;138.52;;;;;;;13.04;76.59;98997.56;4963144;28;20054;-62
2022/12/19 01:10:15;;;;;;;272.27;141.10;;;;;;;12.93;76.90;98998.28;4947775;28;20054;-62
2022/12/19 01:12:50;;;;;;;256.23;135.68;;;;;;;12.81;77.03;99008.16;4964403;28;20046;-62
2022/12/19 01:15:40;;;;;;;268.17;138.25;;;;;;;12.73;78.17;99009.25;4962518;28;20066;-62
2022/12/19 01:18:22;;;;;;;272.88;141.48;;;;;;;12.73;78.75;99011.94;4964049;28;20121;-62
2022/12/19 01:21:17;;;;;;;272.65;137.63;;;;;;;12.69;78.25;99014.25;4942145;28;20457;-62
2022/12/19 01:23:54;;;;;;;289.08;142.88;;;;;;;12.65;78.02;99020.28;4955242;28;20085;-62
2022/12/19 01:26:42;;;;;;;280.23;143.73;;;;;;;12.49;78.29;99024.34;4956137;28;20442;-61
2022/12/19 01:29:25;;;;;;;285.13;143.25;;;;;;;12.65;78.09;99026.53;4958524;28;20533;-61
2022/12/19 01:32:17;;;;;;;278.40;144.40;;;;;;;12.49;78.18;99033.25;4941571;28;20039;-61
2022/12/19 01:35:07;;;;;;;291.77;144.93;;;;;;;12.32;78.21;99030.28;4938526;28;20137;-61
2022/12/19 01:38:00;;;;;;;281.67;142.20;;;;;;;12.33;78.82;99033.78;4947419;28;20095;-61
2022/12/19 01:41:02;;;;;;;279.88;141.65;;;;;;;12.39;79.11;99034.78;4947218;28;20168;-62
2022/12/19 01:44:01;;;;;;;274.00;139.85;;;;;;;12.42;79.12;99039.72;4960351;28;20113;-61
2022/12/19 01:46:58;;;;;;;287.38;142.88;;;;;;;12.51;79.55;99038.41;4957661;28;20154;-61
2022/12/19 01:49:41;;;;;;;274.63;144.98;;;;;;;12.59;79.14;99042.72;4939825;28;20157;-61
2022/12/19 01:52:31;;;;;;;290.35;145.13;;;;;;;12.59;78.38;99043.56;4958177;28;20046;-61
2022/12/19 01:55:13;;;;;;;285.50;143.27;;;;;;;12.61;78.97;99043.31;4960961;28;20513;-61
2022/12/19 01:58:04;;;;;;;285.90;143.32;;;;;;;12.57;78.42;99048.31;4955927;28;20109;-61
2022/12/19 02:00:47;;;;;;;301.75;148.10;;;;;;;12.52;78.39;99050.84;4939591;28;20074;-61
2022/12/19 02:03:39;;;;;;;297.60;144.40;;;;;;;12.38;79.25;99054.66;4944255;28;20051;-61
2022/12/19 02:06:23;;;;;;;313.23;153.68;;;;;;;12.37;79.11;99050.34;4940687;28;20371;-61
2022/12/19 02:09:12;;;;;;;308.75;150.07;;;;;;;12.38;79.11;99055.50;4941990;28;20047;-62
2022/12/19 02:11:53;;;;;;;301.17;150.60;;;;;;;12.33;79.52;99061.53;4956719;28;20074;-62
2022/12/19 02:14:43;;;;;;;303.70;155.82;;;;;;;12.30;79.64;99067.31;4939700;28;20599;-62
2022/12/19 02:17:51;;;;;;;309.98;155.73;;;;;;;12.39;79.26;99067.91;4960944;28;20051;-62
2022/12/19 02:21:19;;;;;;;316.40;154.38;;;;;;;12.37;79.63;99070.00;4941539;28;20399;-62
2022/12/19 02:24:29;;;;;;;311.85;153.15;;;;;;;12.52;79.40;99072.38;4956581;28;20035;-62
2022/12/19 02:27:44;;;;;;;318.98;155.95;;;;;;;12.70;78.92;99085.91;4946776;28;20554;-61
2022/12/19 02:31:00;;;;;;;321.48;156.00;;;;;;;12.62;78.57;99093.44;4942924;28;20042;-62
2022/12/19 02:34:12;;;;;;;320.38;157.25;;;;;;;12.63;78.48;99092.38;4965157;28;20134;-62
2022/12/19 02:37:41;;;;;;;312.73;151.18;;;;;;;12.71;79.13;99097.53;4945134;28;20066;-61
2022/12/19 02:40:34;;;;;;;315.67;152.65;;;;;;;12.91;78.38;99106.25;4951995;28;20046;-63
2022/12/19 02:43:28;;;;;;;349.95;161.45;;;;;;;12.78;78.27;99110.94;4950134;28;20099;-63
2022/12/19 02:46:13;;;;;;;334.10;158.63;;;;;;;12.76;78.69;99105.75;4951003;28;20478;-62
2022/12/19 02:49:03;;;;;;;328.20;157.85;;;;;;;12.92;79.30;99104.41;4934392;29;20051;-62
2022/12/19 02:51:44;;;;;;;349.48;166.30;;;;;;;13.04;78.99;99117.97;4942799;28;20146;-62
2022/12/19 02:54:40;;;;;;;362.75;167.15;;;;;;;13.06;79.19;99116.72;4950429;28;20042;-62
2022/12/19 02:57:28;;;;;;;376.42;180.82;;;;;;;13.15;78.64;99121.84;4947742;28;20118;-62
2022/12/19 03:00:21;;;;;;;369.92;175.80;;;;;;;13.20;79.29;99121.97;4941320;28;20043;-61
2022/12/19 03:03:22;;;;;;;375.02;173.57;;;;;;;13.39;79.39;99134.47;4943056;28;20078;-61
2022/12/19 03:06:29;;;;;;;402.10;186.02;;;;;;;13.46;78.28;99140.66;4940259;28;20086;-62
2022/12/19 03:09:20;;;;;;;415.95;190.20;;;;;;;13.49;78.04;99129.41;4946996;28;20781;-62
2022/12/19 03:12:14;;;;;;;395.95;188.13;;;;;;;13.65;78.73;99135.28;4942440;28;20077;-62
2022/12/19 03:15:11;;;;;;;383.58;186.10;;;;;;;13.86;77.96;99142.09;4933156;28;20482;-62
2022/12/19 03:17:48;;;;;;;383.10;186.20;;;;;;;13.75;77.73;99146.38;4958179;28;20046;-63
2022/12/19 03:20:47;;;;;;;397.98;186.52;;;;;;;13.96;77.81;99149.69;4962046;28;20050;-61
2022/12/19 03:23:29;;;;;;;386.80;184.43;;;;;;;13.94;77.27;99155.28;4948050;28;20055;-62
2022/12/19 03:26:20;;;;;;;394.60;181.45;;;;;;;14.18;78.03;99156.25;4958287;28;20079;-62
2022/12/19 03:29:22;;;;;;;375.60;184.05;;;;;;;14.49;77.46;99154.41;4961345;28;20057;-62
2022/12/19 03:32:14;;;;;;;378.88;184.05;;;;;;;14.66;76.16;99155.44;4965422;28;20043;-62
2022/12/19 03:35:05;;;;;;;384.60;178.75;;;;;;;14.91;75.93;99165.28;4974423;28;20422;-62
2022/12/19 03:38:01;;;;;;;368.00;177.73;;;;;;;15.17;73.95;99172.16;4955006;28;20058;-62
2022/12/19 03:40:44;;;;;;;359.45;176.43;;;;;;;15.49;73.27;99168.28;4966474;28;20084;-62
2022/12/19 03:43:35;;;;;;;361.75;176.63;;;;;;;15.75;72.63;99177.84;4966061;28;20070;-62
2022/12/19 03:46:29;;;;;;;335.38;171.00;;;;;;;16.14;71.10;99176.25;4969639;28;20051;-60
2022/12/19 03:49:19;;;;;;;343.33;173.63;;;;;;;16.24;70.16;99184.59;4966968;28;20062;-62
2022/12/19 03:52:10;;;;;;;336.67;169.23;;;;;;;16.38;69.73;99189.75;4967228;28;20050;-62
2022/12/19 03:55:17;;;;;;;333.73;173.73;;;;;;;16.21;71.27;99193.19;4967033;28;20379;-62
2022/12/19 03:58:04;;;;;;;327.30;171.38;;;;;;;16.82;69.22;99200.91;4966284;28;20051;-62
2022/12/19 04:01:00;;;;;;;349.80;179.45;;;;;;;17.19;69.25;99203.19;4966339;28;20054;-62
2022/12/19 04:03:36;;;;;;;323.13;168.60;;;;;;;17.30;68.97;99206.91;4967392;28;20060;-62
2022/12/19 04:06:35;;;;;;;331.65;172.57;;;;;;;17.43;68.77;99209.28;4966419;28;20087;-62
2022/12/19 04:09:21;;;;;;;328.92;170.93;;;;;;;17.80;66.59;99220.44;4954868;28;20463;-61
2022/12/19 04:12:14;;;;;;;321.27;171.53;;;;;;;17.89;67.54;99225.50;4965374;28;20051;-63
2022/12/19 04:14:56;;;;;;;314.08;169.18;;;;;;;17.96;66.83;99229.69;4960380;28;20047;-63
2022/12/19 04:17:57;;;;;;;310.63;170.85;;;;;;;17.68;66.51;99236.00;4964419;28;20058;-64
2022/12/19 04:20:43;;;;;;;321.17;168.70;;;;;;;18.18;68.05;99237.84;4966220;28;20050;-62
2022/12/19 04:23:50;;;;;;;312.83;166.23;;;;;;;18.79;63.63;99235.06;4958891;28;20364;-62
2022/12/19 04:26:50;;;;;;;317.40;170.23;;;;;;;18.62;64.42;99241.66;4946756;28;20055;-63
2022/12/19 04:29:30;;;;;;;339.00;177.47;;;;;;;18.62;66.33;99244.38;4958187;28;20513;-62
2022/12/19 04:32:20;;;;;;;312.23;170.18;;;;;;;18.98;65.88;99243.72;4963978;28;20764;-62
2022/12/19 04:35:01;;;;;;;322.33;173.43;;;;;;;18.72;64.81;99248.03;4954573;28;20047;-62
2022/12/19 04:37:58;;;;;;;312.10;172.77;;;;;;;19.08;63.44;99250.34;4965259;28;20131;-62
2022/12/19 04:40:34;;;;;;;310.90;169.63;;;;;;;19.00;64.08;99248.91;4945242;28;20154;-62
2022/12/19 04:43:30;;;;;;;320.38;180.48;;;;;;;18.80;64.27;99244.06;4964761;28;20240;-63
2022/12/19 04:46:06;;;;;;;321.02;179.80;;;;;;;18.88;63.62;99250.97;4965855;28;20055;-62
2022/12/19 04:49:02;;;;;;;320.23;179.88;;;;;;;18.96;65.72;99254.03;4965981;28;20055;-62
2022/12/19 04:51:50;;;;;;;333.20;179.98;;;;;;;18.35;65.27;99253.28;4964955;28;20498;-60
2022/12/19 04:54:33;;;;;;;344.25;182.43;;;;;;;18.56;66.09;99247.03;4966123;28;20133;-61
2022/12/19 04:57:29;;;;;;;343.80;185.13;;;;;;;18.85;65.81;99246.03;4965028;28;20130;-62
2022/12/19 05:00:07;;;;;;;356.27;192.55;;;;;;;18.57;65.67;99251.41;4964572;28;20121;-63
2022/12/19 05:02:56;;;;;;;358.90;190.05;;;;;;;18.58;65.37;99249.50;4950839;28;20777;-62
2022/12/19 05:05:38;;;;;;;345.35;189.80;;;;;;;18.27;66.88;99253.72;4965204;28;20149;-62
2022/12/19 05:08:33;;;;;;;338.25;187.93;;;;;;;18.69;66.48;99247.72;4965905;28;20314;-60
2022/12/19 05:11:22;;;;;;;335.00;184.68;;;;;;;19.32;66.53;99248.97;4931743;28;20194;-60
2022/12/19 05:14:12;;;;;;;332.35;183.68;;;;;;;19.51;64.19;99249.41;4959320;28;20066;-61
2022/12/19 05:17:00;;;;;;;331.25;178.73;;;;;;;19.50;66.28;99246.94;4932598;28;20050;-61
2022/12/19 05:19:43;;;;;;;320.55;177.35;;;;;;;19.75;62.93;99249.06;4956970;28;21096;-61
2022/12/19 05:22:31;;;;;;;316.88;166.07;;;;;;;19.74;62.64;99241.97;4963839;28;20110;-61
2022/12/19 05:25:20;;;;;;;300.45;166.30;;;;;;;19.81;61.54;99244.47;4962212;28;20070;-61
2022/12/19 05:28:03;;;;;;;297.35;159.10;;;;;;;20.06;61.58;99246.53;4947593;28;20792;-60
2022/12/19 05:30:52;;;;;;;287.42;158.52;;;;;;;19.92;62.98;99238.81;4960593;28;20131;-60
2022/12/19 05:33:35;;;;;;;291.75;158.38;;;;;;;20.13;64.23;99234.31;4960923;28;20537;-60
2022/12/19 05:36:25;;;;;;;256.60;142.18;;;;;;;20.11;62.70;99231.03;4954956;28;20047;-63
2022/12/19 05:39:14;;;;;;;282.80;148.65;;;;;;;20.06;62.89;99230.19;4939462;28;20061;-62
2022/12/19 05:42:03;;;;;;;255.23;146.10;;;;;;;20.14;61.73;99227.78;4959351;28;20051;-62
2022/12/19 05:44:52;;;;;;;273.27;143.68;;;;;;;20.36;61.61;99229.53;4956578;28;20521;-62
2022/12/19 05:47:34;;;;;;;269.85;148.20;;;;;;;20.69;59.79;99224.78;4962401;28;20421;-58
2022/12/19 05:50:30;;;;;;;264.77;147.88;;;;;;;20.82;60.48;99227.00;4954406;28;20096;-59
2022/12/19 05:53:11;;;;;;;228.88;131.25;;;;;;;20.75;59.25;99226.44;4968058;28;20057;-62
2022/12/19 05:56:08;;;;;;;264.35;143.85;;;;;;;20.75;60.04;99215.53;4957179;28;20680;-61
2022/12/19 05:58:51;;;;;;;290.90;159.48;;;;;;;21.07;59.06;99207.13;4967191;28;20130;-64
2022/12/19 06:01:40;;;;;;;298.52;165.48;;;;;;;21.27;56.89;99206.34;4958584;28;20058;-64
2022/12/19 06:04:23;;;;;;;334.45;183.55;;;;;;;21.38;56.84;99211.78;4946194;28;20158;-61
2022/12/19 06:07:17;;;;;;;327.00;177.02;;;;;;;21.33;57.52;99203.63;4954310;28;20059;-60
2022/12/19 06:10:01;;;;;;;315.10;180.70;;;;;;;21.59;59.50;99202.53;4967334;28;20054;-62
2022/12/19 06:12:50;;;;;;;339.90;187.25;;;;;;;21.72;56.13;99194.88;4968355;28;20051;-61
2022/12/19 06:15:33;;;;;;;;;;;;;;;21.60;56.74;99187.78;4964495;28;20042;-61
2022/12/19 06:18:22;;;;;;;358.40;188.70;;;;;;;20.99;56.54;99183.09;4968341;28;20005;-61
2022/12/19 06:21:09;;;;;;;344.05;187.60;;;;;;;21.31;56.34;99180.13;4968116;28;20462;-60
2022/12/19 06:23:59;;;;;;;339.48;190.90;;;;;;;21.69;58.20;99175.22;4966631;28;20478;-59
2022/12/19 06:26:42;;;;;;;358.30;201.02;;;;;;;21.59;57.23;99172.50;4965359;28;20121;-62
2022/12/19 06:29:31;;;;;;;348.45;196.75;;;;;;;21.59;59.30;99169.78;4951453;28;20050;-62
2022/12/19 06:32:19;;;;;;;336.33;187.65;;;;;;;21.78;56.69;99170.00;4932291;28;20074;-61
2022/12/19 06:35:02;;;;;;;319.70;178.80;;;;;;;21.81;56.54;99171.38;4910688;28;20585;-63
2022/12/19 06:37:50;;;;;;;338.50;190.90;;;;;;;21.84;55.18;99166.16;4948225;28;20474;-63
2022/12/19 06:43:54;;;;;;;304.27;166.00;;;;;;;22.00;55.40;99158.72;4966910;28;20050;-59
2022/12/19 06:46:31;;;;;;;297.30;164.23;;;;;;;22.01;57.77;99154.06;4965339;28;20051;-55
2022/12/19 06:49:26;;;;;;;279.23;154.38;;;;;;;21.54;55.09;99150.66;4966010;28;20046;-62
2022/12/19 06:52:03;;;;;;;277.75;156.38;;;;;;;22.05;56.35;99147.78;4966459;28;20058;-58
2022/12/19 06:54:51;;;;;;;278.65;155.45;;;;;;;22.15;53.92;99146.13;4967232;28;20055;-61
2022/12/19 06:57:44;;;;;;;290.73;155.43;;;;;;;22.21;53.28;99143.06;4966517;28;20746;-57
2022/12/19 07:00:26;;;;;;;278.70;153.15;;;;;;;22.12;53.71;99133.81;4966147;28;20062;-62
2022/12/19 07:03:18;;;;;;;274.90;150.35;;;;;;;22.18;55.70;99131.88;4967209;28;20061;-60
2022/12/19 07:06:01;;;;;;;262.13;145.65;;;;;;;22.24;56.84;99130.75;4967550;28;20050;-61
2022/12/19 07:08:56;;;;;;;257.20;139.73;;;;;;;22.31;53.94;99134.03;4965464;28;20066;-60
2022/12/19 07:11:45;;;;;;;239.25;132.45;;;;;;;22.28;52.36;99118.22;4967571;28;20584;-60
2022/12/19 07:14:33;;;;;;;235.48;134.63;;;;;;;22.20;52.57;99116.00;4966670;28;20054;-61
2022/12/19 07:17:16;;;;;;;241.20;134.32;;;;;;;22.41;52.94;99111.28;4965771;28;20046;-61
2022/12/19 07:20:09;;;;;;;241.02;136.68;;;;;;;22.41;54.34;99112.13;4967129;28;20047;-61
2022/12/19 07:22:52;;;;;;;260.25;142.70;;;;;;;22.17;53.45;99105.66;4953245;28;20058;-61
2022/12/19 07:25:40;;;;;;;265.35;142.27;;;;;;;22.04;52.83;99098.88;4966621;28;20480;-61
2022/12/19 07:28:23;;;;;;;270.35;143.88;;;;;;;22.55;53.28;99092.34;4965635;28;20062;-61
2022/12/19 07:31:12;;;;;;;251.70;141.43;;;;;;;22.61;53.76;99085.75;4964429;28;20141;-61
2022/12/19 07:33:53;;;;;;;261.38;140.32;;;;;;;22.71;52.70;99084.84;4967278;28;20063;-61
2022/12/19 07:36:42;;;;;;;254.77;140.82;;;;;;;22.75;51.34;99081.25;4966884;28;20043;-61
2022/12/19 07:39:25;;;;;;;259.45;142.25;;;;;;;22.48;51.25;99076.25;4948292;28;20067;-61
2022/12/19 07:42:13;;;;;;;251.77;143.05;;;;;;;22.45;51.24;99074.06;4964007;28;20098;-61
2022/12/19 07:44:56;;;;;;;254.45;143.00;;;;;;;22.58;51.54;99075.34;4966340;28;20055;-61
2022/12/19 07:47:46;;;;;;;263.45;146.40;;;;;;;22.57;55.53;99062.78;4966376;28;20067;-62
2022/12/19 07:50:29;;;;;;;293.02;149.02;;;;;;;22.31;52.96;99071.16;4963881;28;20064;-61
2022/12/19 07:53:17;;;;;;;277.08;148.57;;;;;;;22.30;55.63;99061.31;4965385;28;20050;-61
2022/12/19 07:55:59;;;;;;;286.60;150.60;;;;;;;22.27;53.81;99065.41;4964302;28;20059;-60
2022/12/19 07:58:48;;;;;;;282.67;153.48;;;;;;;22.35;55.58;99061.28;4961881;28;20047;-59
2022/12/19 08:01:30;;;;;;;325.40;169.82;;;;;;;22.23;56.30;99060.78;4965120;28;20046;-61
2022/12/19 08:04:20;;;;;;;310.70;178.20;;;;;;;22.20;57.01;99044.94;4965662;28;20073;-60
2022/12/19 08:07:01;;;;;;;353.73;182.50;;;;;;;22.16;55.90;99035.66;4965390;28;20085;-59
2022/12/19 08:09:56;;;;;;;337.25;177.20;;;;;;;22.18;56.29;99044.41;4957192;28;20067;-60
2022/12/19 08:12:33;;;;;;;333.13;176.23;;;;;;;22.07;57.30;99036.28;4958382;28;20154;-60
2022/12/19 08:15:27;;;;;;;320.87;171.87;;;;;;;22.07;57.38;99039.00;4963771;28;20096;-58
2022/12/19 08:18:03;;;;;;;311.58;172.85;;;;;;;22.18;57.51;99041.66;4962822;28;20285;-61
2022/12/19 08:20:52;;;;;;;335.30;178.52;;;;;;;22.16;57.53;99030.19;4964877;28;20102;-61
2022/12/19 08:23:44;;;;;;;311.23;169.80;;;;;;;21.95;55.35;99029.50;4954285;28;20058;-59
2022/12/19 08:26:33;;;;;;;308.42;165.23;;;;;;;22.00;56.57;99032.22;4964269;28;20070;-60
2022/12/19 08:29:22;;;;;;;302.65;170.13;;;;;;;22.09;55.73;99023.13;4964688;28;20043;-61
2022/12/19 08:32:19;;;;;;;315.70;175.73;;;;;;;22.08;56.53;99024.22;4960898;28;20074;-59
2022/12/19 08:34:55;;;;;;;314.27;174.82;;;;;;;22.14;55.81;99016.00;4963162;28;20070;-60
2022/12/19 08:37:44;;;;;;;327.70;173.18;;;;;;;22.13;56.60;99008.91;4964071;28;20050;-61
2022/12/19 08:40:27;;;;;;;314.52;171.75;;;;;;;22.14;56.89;99005.88;4964705;28;20746;-61
2022/12/19 08:43:15;;;;;;;296.80;165.35;;;;;;;22.08;56.04;99007.00;4963425;28;20047;-60
2022/12/19 08:46:05;;;;;;;281.77;158.68;;;;;;;22.10;55.59;99008.34;4965388;28;20205;-61
2022/12/19 08:48:47;;;;;;;287.60;156.25;;;;;;;22.03;57.05;99005.13;4962655;28;20063;-63
2022/12/19 08:51:36;;;;;;;281.52;157.15;;;;;;;21.93;58.92;98996.97;4962917;28;20138;-61
2022/12/19 08:54:18;;;;;;;276.90;155.32;;;;;;;21.94;59.15;99000.56;4947898;28;20643;-62
2022/12/19 08:57:08;;;;;;;279.10;155.68;;;;;;;21.97;60.15;98994.50;4962803;28;20133;-62
2022/12/19 08:59:49;;;;;;;261.30;141.20;;;;;;;22.06;55.09;98988.16;4965329;28;20110;-63
2022/12/19 09:02:39;;;;;;;240.57;129.40;;;;;;;22.09;54.17;98986.78;4962521;28;20118;-64
2022/12/19 09:05:34;;;;;;;221.95;125.57;;;;;;;22.14;52.55;98985.94;4963550;28;20050;-64
2022/12/19 09:08:31;;;;;;;205.40;119.22;;;;;;;22.24;51.95;98986.69;4961736;28;20057;-62
2022/12/19 09:11:28;;;;;;;211.75;119.05;;;;;;;22.05;50.89;98986.53;4963973;28;20121;-63
2022/12/19 09:14:32;;;;;;;208.13;119.93;;;;;;;22.22;53.15;98974.38;4960288;28;20143;-61
2022/12/19 09:17:21;;;;;;;210.75;114.78;;;;;;;22.21;51.04;98970.84;4957392;28;20518;-61
2022/12/19 09:20:05;;;;;;;214.57;117.22;;;;;;;22.27;52.71;98977.13;4960551;28;20105;-62
2022/12/19 09:23:00;;;;;;;208.63;115.05;;;;;;;22.15;52.89;98968.44;4958433;28;20075;-61
2022/12/19 09:25:42;;;;;;;208.43;119.10;;;;;;;22.09;54.35;98970.41;4962721;28;20101;-61
2022/12/19 09:28:32;;;;;;;201.82;118.10;;;;;;;22.14;55.04;98972.25;4956214;28;20161;-65
2022/12/19 09:31:24;;;;;;;201.65;117.63;;;;;;;22.08;55.97;98964.09;4968506;28;20593;-64
2022/12/19 09:34:05;;;;;;;213.93;127.40;;;;;;;22.03;56.67;98964.16;4968839;28;20058;-63
2022/12/19 09:36:54;;;;;;;262.90;144.25;;;;;;;21.98;57.02;98955.97;4967364;28;20058;-63
2022/12/19 09:39:37;;;;;;;284.08;150.55;;;;;;;22.02;56.89;98953.50;4962887;28;20152;-62
2022/12/19 09:42:46;;;;;;;281.83;151.45;;;;;;;22.01;57.75;98949.09;4965962;28;20073;-65
2022/12/19 09:46:12;;;;;;;277.73;148.88;;;;;;;21.96;57.95;98949.16;4967089;28;20076;-62
2022/12/19 09:48:56;;;;;;;275.13;147.65;;;;;;;21.93;58.48;98942.31;4859318;29;20149;-63
2022/12/19 09:52:11;;;;;;;275.17;149.40;;;;;;;21.82;59.12;98943.50;4856521;29;20072;-62
2022/12/19 09:54:57;;;;;;;272.30;146.90;;;;;;;21.78;59.29;98943.25;4964619;28;20065;-62
2022/12/19 09:58:00;;;;;;;269.73;144.98;;;;;;;21.69;58.66;98940.28;4961607;28;20051;-62
2022/12/19 10:00:55;;;;;;;267.00;142.60;;;;;;;21.80;57.57;98935.59;4959762;28;20082;-61
2022/12/19 10:03:49;;;;;;;257.52;141.82;;;;;;;21.73;57.86;98937.00;4966541;28;20062;-62
2022/12/19 10:06:31;;;;;;;261.98;143.40;;;;;;;21.72;57.65;98935.38;4963853;28;20146;-60
2022/12/19 10:09:46;;;;;;;257.00;137.15;;;;;;;21.65;57.47;98932.97;4966529;28;20043;-62
2022/12/19 10:13:07;;;;;;;243.38;131.93;;;;;;;21.68;57.12;98932.38;4965820;28;20399;-62
2022/12/19 10:16:25;;;;;;;242.73;130.82;;;;;;;21.63;57.65;98927.78;4967894;28;20055;-62
2022/12/19 10:19:22;;;;;;;239.32;126.97;;;;;;;21.60;57.64;98925.59;4965890;28;20050;-63
2022/12/19 10:22:38;;;;;;;227.98;124.80;;;;;;;21.53;58.42;98914.16;4965721;28;20046;-61
2022/12/19 10:25:39;;;;;;;222.57;122.55;;;;;;;21.44;59.05;98915.88;4967908;28;20057;-61
2022/12/19 10:28:40;;;;;;;223.13;122.10;;;;;;;21.44;57.57;98908.47;4962998;28;20062;-62
2022/12/19 10:31:37;;;;;;;226.38;123.53;;;;;;;21.42;58.05;98907.91;4958905;28;20061;-63
2022/12/19 10:34:44;;;;;;;222.27;121.93;;;;;;;21.35;58.43;98917.50;4962693;28;20043;-61
2022/12/19 10:37:42;;;;;;;223.80;124.65;;;;;;;21.27;60.12;98906.06;4956937;28;20193;-62
2022/12/19 10:40:56;;;;;;;232.38;127.15;;;;;;;21.15;61.54;98902.81;4960735;28;20065;-62
2022/12/19 10:44:04;;;;;;;229.45;127.50;;;;;;;21.08;62.45;98905.06;4960848;28;20047;-63
2022/12/19 10:46:56;;;;;;;227.02;128.73;;;;;;;20.93;61.93;98901.25;4960749;28;20047;-63
2022/12/19 10:49:38;;;;;;;228.02;126.28;;;;;;;20.95;60.51;98902.91;4965391;28;20125;-62
2022/12/19 10:52:55;;;;;;;232.05;125.18;;;;;;;20.91;61.32;98891.75;4967373;28;20708;-61
2022/12/19 10:55:52;;;;;;;222.00;124.80;;;;;;;20.92;62.19;98898.81;4964741;28;20047;-62
2022/12/19 10:58:47;;;;;;;235.73;128.95;;;;;;;20.84;61.93;98897.47;4958814;28;20088;-64
2022/12/19 11:01:34;;;;;;;227.73;128.25;;;;;;;20.72;63.18;98894.25;4960578;28;20507;-62
2022/12/19 11:04:33;;;;;;;235.52;126.18;;;;;;;20.72;62.93;98896.97;4958814;28;20050;-61
2022/12/19 11:07:29;;;;;;;236.07;127.22;;;;;;;20.82;62.38;98888.75;4962728;28;20717;-61
2022/12/19 11:10:53;;;;;;;223.65;125.28;;;;;;;20.79;62.57;98883.88;4956064;28;20051;-61
2022/12/19 11:14:30;;;;;;;206.40;115.85;;;;;;;20.66;63.30;98884.44;4955821;28;20066;-61
2022/12/19 11:17:32;;;;;;;198.00;109.57;;;;;;;20.57;60.58;98886.06;4966736;28;20055;-60
2022/12/19 11:20:58;;;;;;;186.57;107.68;;;;;;;20.42;61.45;98881.44;4965550;28;20047;-60
2022/12/19 11:24:10;;;;;;;182.50;105.07;;;;;;;20.33;62.10;98876.56;4962960;28;20144;-59
2022/12/19 11:27:47;;;;;;;193.98;107.75;;;;;;;20.21;62.58;98869.75;4960394;28;20130;-61
2022/12/19 11:30:43;;;;;;;198.98;105.30;;;;;;;20.08;63.07;98871.94;4965811;28;20055;-61
2022/12/19 11:34:01;;;;;;;189.73;106.70;;;;;;;20.04;63.16;98870.00;4963373;28;20053;-60
2022/12/19 11:37:26;;;;;;;194.35;109.50;;;;;;;19.92;63.90;98864.84;4961572;28;20047;-61
2022/12/19 11:40:41;;;;;;;201.85;109.35;;;;;;;19.77;64.81;98867.53;4961115;28;20058;-62
2022/12/19 11:43:36;;;;;;;194.75;110.72;;;;;;;19.63;65.13;98868.03;4965634;28;20043;-59
2022/12/19 11:46:33;;;;;;;212.48;113.78;;;;;;;19.44;66.20;98869.63;4966449;28;20070;-60
2022/12/19 11:49:46;;;;;;;205.02;112.60;;;;;;;19.43;66.50;98868.00;4966655;28;20058;-61
2022/12/19 11:52:37;;;;;;;206.40;113.00;;;;;;;19.35;67.36;98867.41;4966016;28;20055;-61
2022/12/19 11:55:59;;;;;;;210.77;113.15;;;;;;;19.29;67.65;98868.50;4964675;28;20047;-62
2022/12/19 11:58:40;;;;;;;;;;;;;;;19.26;67.01;98863.59;4965275;28;20055;-59
2022/12/19 12:01:46;;;;;;;240.95;116.45;;;;;;;19.10;67.65;98864.63;4620507;28;10000122;-59
2022/12/19 12:05:00;;;;;;;226.57;117.03;;;;;;;19.01;68.13;98869.75;4961080;28;20481;-61
2022/12/19 12:07:51;;;;;;;223.55;116.53;;;;;;;18.95;68.20;98868.94;4963858;28;20054;-62
2022/12/19 12:11:07;;;;;;;234.30;120.50;;;;;;;18.94;68.29;98866.47;4959313;28;20047;-63
2022/12/19 12:14:26;;;;;;;231.93;118.70;;;;;;;18.73;69.14;98857.38;4961227;28;20043;-63
2022/12/19 12:18:05;;;;;;;248.63;124.25;;;;;;;18.65;69.44;98866.00;4965391;28;20050;-61
2022/12/19 12:21:29;;;;;;;235.77;121.35;;;;;;;18.53;69.72;98867.03;4964625;28;20070;-63
2022/12/19 12:24:59;;;;;;;236.82;119.63;;;;;;;18.46;70.10;98871.88;4956253;28;20401;-61
2022/12/19 12:28:39;;;;;;;252.15;122.80;;;;;;;18.39;70.31;98866.66;4957341;28;20150;-62
2022/12/19 12:32:29;;;;;;;243.95;124.50;;;;;;;18.50;69.62;98872.19;4954567;28;20066;-61
2022/12/19 12:35:43;;;;;;;233.45;125.05;;;;;;;18.35;69.91;98873.69;4960750;28;20142;-62
2022/12/19 12:39:11;;;;;;;257.10;125.10;;;;;;;18.30;70.33;98883.72;4947975;28;20170;-62
2022/12/19 12:42:21;;;;;;;248.40;125.43;;;;;;;18.17;70.77;98884.97;4961309;28;20050;-60
2022/12/19 12:45:22;;;;;;;256.15;127.88;;;;;;;18.08;71.35;98881.91;4619892;28;9999875;-60
2022/12/19 12:48:29;;;;;;;251.70;127.95;;;;;;;17.96;71.92;98889.41;4960365;28;20142;-62
2022/12/19 12:51:11;;;;;;;275.38;130.63;;;;;;;17.92;71.95;98882.84;4956471;28;20047;-59
2022/12/19 12:54:19;;;;;;;261.13;131.60;;;;;;;18.04;71.55;98885.38;4961653;28;20058;-59
2022/12/19 12:57:03;;;;;;;259.52;130.70;;;;;;;18.15;70.69;98885.25;4962633;28;20046;-60
2022/12/19 12:59:52;;;;;;;265.95;131.60;;;;;;;18.15;70.78;98887.97;4960472;28;20086;-63
2022/12/19 13:02:51;;;;;;;264.25;127.95;;;;;;;17.83;71.82;98890.63;4962976;28;20179;-61